Little York, New York
Current Conditions -  °F | °C
As of 4:55 AM on Friday 19 Dec 2014 (Local Time) from KN03 Reporting Station
Light Snow Light Snow  
Wind Chill: 19°   Ceiling: 1300
Heat Index: 27°   Visibility: 7mi
Dew Point: 25°   Wind: 7mph
Humidity: 93%   Direction: 330°NNW
Pressure: 30.02"   Gusts: NA
Location:  42.69°N, 76.15°W
Report Text: KN03 190955Z AUTO 33006KT 7SM -SN OVC013 M03/M04 A3002 RMK AO2
Loading
Personal Weather Stations






























Interactive Weather Map New forecast layout! Learn more

10-Day Weather Forecast

Advertisements
Track Severe Weather on mobile